sensor_id;sensor_type;location;lat;lon;timestamp;pressure;altitude;pressure_sealevel;temperature;humidity
68456;BME280;55437;55.046;38.838;2022-08-20T00:01:03;101024.88;;;16.26;60.20
68456;BME280;55437;55.046;38.838;2022-08-20T00:03:36;101026.06;;;16.17;60.48
68456;BME280;55437;55.046;38.838;2022-08-20T00:06:09;101029.75;;;16.10;60.57
68456;BME280;55437;55.046;38.838;2022-08-20T00:08:36;101022.22;;;16.04;60.66
68456;BME280;55437;55.046;38.838;2022-08-20T00:11:05;101024.97;;;15.99;60.94
68456;BME280;55437;55.046;38.838;2022-08-20T00:13:35;101018.25;;;15.94;61.03
68456;BME280;55437;55.046;38.838;2022-08-20T00:16:02;101024.50;;;15.88;61.19
68456;BME280;55437;55.046;38.838;2022-08-20T00:18:31;101020.16;;;15.89;61.06
68456;BME280;55437;55.046;38.838;2022-08-20T00:20:58;101016.81;;;15.85;61.29
68456;BME280;55437;55.046;38.838;2022-08-20T00:23:27;101017.75;;;15.82;61.40
68456;BME280;55437;55.046;38.838;2022-08-20T00:25:53;101023.03;;;15.81;61.26
68456;BME280;55437;55.046;38.838;2022-08-20T00:28:19;101016.19;;;15.78;61.22
68456;BME280;55437;55.046;38.838;2022-08-20T00:30:45;101018.94;;;15.74;61.36
68456;BME280;55437;55.046;38.838;2022-08-20T00:33:15;101015.59;;;15.70;61.58
68456;BME280;55437;55.046;38.838;2022-08-20T00:35:44;101021.81;;;15.66;61.57
68456;BME280;55437;55.046;38.838;2022-08-20T00:38:11;101031.31;;;15.66;61.62
68456;BME280;55437;55.046;38.838;2022-08-20T00:40:43;101030.56;;;15.62;61.48
68456;BME280;55437;55.046;38.838;2022-08-20T00:43:41;101033.06;;;15.65;61.36
68456;BME280;55437;55.046;38.838;2022-08-20T00:46:17;101027.88;;;15.65;61.32
68456;BME280;55437;55.046;38.838;2022-08-20T00:48:45;101018.50;;;15.61;61.44
68456;BME280;55437;55.046;38.838;2022-08-20T00:53:47;101028.72;;;15.66;61.25
68456;BME280;55437;55.046;38.838;2022-08-20T00:56:13;101027.66;;;15.71;61.02
68456;BME280;55437;55.046;38.838;2022-08-20T00:58:39;101017.16;;;15.76;60.85
68456;BME280;55437;55.046;38.838;2022-08-20T01:01:07;101025.63;;;15.81;60.74
68456;BME280;55437;55.046;38.838;2022-08-20T01:03:34;101016.09;;;15.81;60.77
68456;BME280;55437;55.046;38.838;2022-08-20T01:06:00;101022.94;;;15.82;60.65
68456;BME280;55437;55.046;38.838;2022-08-20T01:08:26;101022.94;;;15.82;60.66
68456;BME280;55437;55.046;38.838;2022-08-20T01:10:52;101014.56;;;15.76;60.69
68456;BME280;55437;55.046;38.838;2022-08-20T01:13:34;101018.63;;;15.83;60.62
68456;BME280;55437;55.046;38.838;2022-08-20T01:16:03;101022.09;;;15.82;60.67
68456;BME280;55437;55.046;38.838;2022-08-20T01:18:32;101024.88;;;15.77;60.56
68456;BME280;55437;55.046;38.838;2022-08-20T01:21:01;101026.56;;;15.78;60.67
68456;BME280;55437;55.046;38.838;2022-08-20T01:26:16;101027.50;;;15.76;60.84
68456;BME280;55437;55.046;38.838;2022-08-20T01:31:15;101026.72;;;15.74;60.80
68456;BME280;55437;55.046;38.838;2022-08-20T01:33:41;101023.28;;;15.73;60.85
68456;BME280;55437;55.046;38.838;2022-08-20T01:36:08;101026.88;;;15.69;61.00
68456;BME280;55437;55.046;38.838;2022-08-20T01:38:35;101020.09;;;15.65;61.16
68456;BME280;55437;55.046;38.838;2022-08-20T01:43:39;101029.63;;;15.65;61.25
68456;BME280;55437;55.046;38.838;2022-08-20T01:46:08;101021.09;;;15.61;61.44
68456;BME280;55437;55.046;38.838;2022-08-20T01:48:36;101026.22;;;15.63;61.35
68456;BME280;55437;55.046;38.838;2022-08-20T01:51:23;101020.25;;;15.61;61.43
68456;BME280;55437;55.046;38.838;2022-08-20T01:53:51;101016.81;;;15.60;61.48
68456;BME280;55437;55.046;38.838;2022-08-20T01:56:23;101022.75;;;15.64;61.64
68456;BME280;55437;55.046;38.838;2022-08-20T01:58:52;101026.38;;;15.58;61.69
68456;BME280;55437;55.046;38.838;2022-08-20T02:01:33;101016.13;;;15.55;61.91
68456;BME280;55437;55.046;38.838;2022-08-20T02:04:00;101017.00;;;15.54;62.05
68456;BME280;55437;55.046;38.838;2022-08-20T02:06:28;101019.81;;;15.46;62.24
68456;BME280;55437;55.046;38.838;2022-08-20T02:08:57;101018.25;;;15.42;62.38
68456;BME280;55437;55.046;38.838;2022-08-20T02:11:24;101023.56;;;15.38;62.65
68456;BME280;55437;55.046;38.838;2022-08-20T02:13:51;101026.03;;;15.42;62.57
68456;BME280;55437;55.046;38.838;2022-08-20T02:16:23;101031.16;;;15.44;62.25
68456;BME280;55437;55.046;38.838;2022-08-20T02:18:52;101030.25;;;15.45;62.37
68456;BME280;55437;55.046;38.838;2022-08-20T02:21:24;101028.53;;;15.45;62.15
68456;BME280;55437;55.046;38.838;2022-08-20T02:23:53;101026.75;;;15.46;62.15
68456;BME280;55437;55.046;38.838;2022-08-20T02:26:19;101020.63;;;15.48;62.13
68456;BME280;55437;55.046;38.838;2022-08-20T02:28:47;101027.34;;;15.54;62.00
68456;BME280;55437;55.046;38.838;2022-08-20T02:31:15;101026.31;;;15.60;61.78
68456;BME280;55437;55.046;38.838;2022-08-20T02:33:41;101028.81;;;15.63;61.94
68456;BME280;55437;55.046;38.838;2022-08-20T02:36:09;101033.69;;;15.72;61.48
68456;BME280;55437;55.046;38.838;2022-08-20T02:38:38;101034.47;;;15.74;61.53
68456;BME280;55437;55.046;38.838;2022-08-20T02:41:04;101036.88;;;15.80;61.28
68456;BME280;55437;55.046;38.838;2022-08-20T02:43:30;101031.41;;;15.88;61.02
68456;BME280;55437;55.046;38.838;2022-08-20T02:45:57;101032.16;;;15.91;60.91
68456;BME280;55437;55.046;38.838;2022-08-20T02:48:24;101032.88;;;15.95;60.85
68456;BME280;55437;55.046;38.838;2022-08-20T02:50:57;101040.66;;;15.95;60.71
68456;BME280;55437;55.046;38.838;2022-08-20T02:53:24;101034.41;;;16.00;60.63
68456;BME280;55437;55.046;38.838;2022-08-20T02:55:51;101043.66;;;16.07;60.35
68456;BME280;55437;55.046;38.838;2022-08-20T02:58:18;101037.19;;;16.19;59.88
68456;BME280;55437;55.046;38.838;2022-08-20T03:00:44;101044.66;;;16.28;59.67
68456;BME280;55437;55.046;38.838;2022-08-20T03:03:14;101040.13;;;16.33;59.46
68456;BME280;55437;55.046;38.838;2022-08-20T03:05:43;101043.97;;;16.46;59.04
68456;BME280;55437;55.046;38.838;2022-08-20T03:08:11;101045.16;;;16.61;58.67
68456;BME280;55437;55.046;38.838;2022-08-20T03:10:41;101049.47;;;16.62;58.22
68456;BME280;55437;55.046;38.838;2022-08-20T03:13:07;101044.09;;;16.67;58.03
68456;BME280;55437;55.046;38.838;2022-08-20T03:15:41;101048.22;;;16.72;57.96
68456;BME280;55437;55.046;38.838;2022-08-20T03:18:07;101040.38;;;16.74;57.75
68456;BME280;55437;55.046;38.838;2022-08-20T03:20:33;101047.16;;;16.78;57.26
68456;BME280;55437;55.046;38.838;2022-08-20T03:22:59;101032.91;;;16.88;56.85
68456;BME280;55437;55.046;38.838;2022-08-20T03:25:26;101047.81;;;17.05;56.69
68456;BME280;55437;55.046;38.838;2022-08-20T03:27:53;101043.25;;;17.11;56.09
68456;BME280;55437;55.046;38.838;2022-08-20T03:30:20;101045.56;;;17.17;55.93
68456;BME280;55437;55.046;38.838;2022-08-20T03:32:47;101045.88;;;17.32;55.65
68456;BME280;55437;55.046;38.838;2022-08-20T03:35:15;101050.28;;;17.29;55.50
68456;BME280;55437;55.046;38.838;2022-08-20T03:37:42;101050.47;;;17.25;55.60
68456;BME280;55437;55.046;38.838;2022-08-20T03:40:11;101057.84;;;17.14;55.39
68456;BME280;55437;55.046;38.838;2022-08-20T03:42:37;101064.97;;;17.09;55.46
68456;BME280;55437;55.046;38.838;2022-08-20T03:45:05;101060.34;;;16.93;55.70
68456;BME280;55437;55.046;38.838;2022-08-20T03:47:32;101071.22;;;16.81;55.87
68456;BME280;55437;55.046;38.838;2022-08-20T03:49:59;101072.31;;;16.76;56.18
68456;BME280;55437;55.046;38.838;2022-08-20T03:52:26;101069.06;;;16.69;56.42
68456;BME280;55437;55.046;38.838;2022-08-20T03:54:54;101078.59;;;16.69;56.50
68456;BME280;55437;55.046;38.838;2022-08-20T03:57:20;101077.91;;;16.65;56.53
68456;BME280;55437;55.046;38.838;2022-08-20T03:59:46;101082.22;;;16.65;56.60
68456;BME280;55437;55.046;38.838;2022-08-20T04:02:12;101080.41;;;16.67;56.21
68456;BME280;55437;55.046;38.838;2022-08-20T04:04:40;101076.00;;;16.69;56.27
68456;BME280;55437;55.046;38.838;2022-08-20T04:07:11;101087.28;;;16.68;56.18
68456;BME280;55437;55.046;38.838;2022-08-20T04:09:37;101088.13;;;16.68;55.92
68456;BME280;55437;55.046;38.838;2022-08-20T04:12:05;101091.72;;;16.66;56.23
68456;BME280;55437;55.046;38.838;2022-08-20T04:14:32;101087.66;;;16.57;56.26
68456;BME280;55437;55.046;38.838;2022-08-20T04:16:58;101087.78;;;16.54;56.07
68456;BME280;55437;55.046;38.838;2022-08-20T04:19:28;101082.47;;;16.57;55.97
68456;BME280;55437;55.046;38.838;2022-08-20T04:21:54;101086.00;;;16.54;55.95
68456;BME280;55437;55.046;38.838;2022-08-20T04:24:19;101081.91;;;16.49;56.15
68456;BME280;55437;55.046;38.838;2022-08-20T04:26:45;101102.75;;;16.46;56.13
68456;BME280;55437;55.046;38.838;2022-08-20T04:29:11;101095.63;;;16.52;55.74
68456;BME280;55437;55.046;38.838;2022-08-20T04:31:36;101091.84;;;16.61;55.77
68456;BME280;55437;55.046;38.838;2022-08-20T04:34:04;101092.59;;;16.65;55.75
68456;BME280;55437;55.046;38.838;2022-08-20T04:36:32;101093.50;;;16.64;55.66
68456;BME280;55437;55.046;38.838;2022-08-20T04:39:00;101093.44;;;16.65;55.71
68456;BME280;55437;55.046;38.838;2022-08-20T04:41:26;101103.81;;;16.65;55.83
68456;BME280;55437;55.046;38.838;2022-08-20T04:43:53;101106.19;;;16.71;55.59
68456;BME280;55437;55.046;38.838;2022-08-20T04:46:19;101101.84;;;16.72;55.44
68456;BME280;55437;55.046;38.838;2022-08-20T04:48:45;101105.16;;;16.75;55.41
68456;BME280;55437;55.046;38.838;2022-08-20T04:51:11;101104.94;;;16.81;55.32
68456;BME280;55437;55.046;38.838;2022-08-20T04:53:39;101102.16;;;16.86;54.99
68456;BME280;55437;55.046;38.838;2022-08-20T04:56:06;101097.34;;;16.77;55.19
68456;BME280;55437;55.046;38.838;2022-08-20T04:58:34;101102.47;;;16.78;55.20
68456;BME280;55437;55.046;38.838;2022-08-20T05:01:11;101103.47;;;16.74;55.21
68456;BME280;55437;55.046;38.838;2022-08-20T05:03:38;101106.97;;;16.73;55.20
68456;BME280;55437;55.046;38.838;2022-08-20T05:06:05;101107.66;;;16.78;55.02
68456;BME280;55437;55.046;38.838;2022-08-20T05:08:33;101117.50;;;16.92;54.73
68456;BME280;55437;55.046;38.838;2022-08-20T05:11:01;101110.50;;;16.94;54.48
68456;BME280;55437;55.046;38.838;2022-08-20T05:13:27;101112.16;;;16.97;54.55
68456;BME280;55437;55.046;38.838;2022-08-20T05:15:53;101106.16;;;16.95;54.42
68456;BME280;55437;55.046;38.838;2022-08-20T05:18:22;101104.91;;;17.05;54.17
68456;BME280;55437;55.046;38.838;2022-08-20T05:20:50;101104.56;;;17.14;53.78
68456;BME280;55437;55.046;38.838;2022-08-20T05:23:17;101104.44;;;17.17;53.68
68456;BME280;55437;55.046;38.838;2022-08-20T05:25:46;101102.44;;;17.23;53.63
68456;BME280;55437;55.046;38.838;2022-08-20T05:28:18;101101.13;;;17.35;53.30
68456;BME280;55437;55.046;38.838;2022-08-20T05:30:46;101102.13;;;17.53;52.90
68456;BME280;55437;55.046;38.838;2022-08-20T05:33:21;101101.34;;;17.73;52.47
68456;BME280;55437;55.046;38.838;2022-08-20T05:35:48;101103.75;;;17.77;52.15
68456;BME280;55437;55.046;38.838;2022-08-20T05:38:17;101098.94;;;17.88;51.78
68456;BME280;55437;55.046;38.838;2022-08-20T05:40:44;101094.00;;;18.03;51.56
68456;BME280;55437;55.046;38.838;2022-08-20T05:43:10;101103.44;;;18.05;51.20
68456;BME280;55437;55.046;38.838;2022-08-20T05:45:38;101090.09;;;18.13;50.78
68456;BME280;55437;55.046;38.838;2022-08-20T05:48:06;101090.56;;;18.22;50.66
68456;BME280;55437;55.046;38.838;2022-08-20T05:50:33;101101.53;;;18.29;50.46
68456;BME280;55437;55.046;38.838;2022-08-20T05:53:02;101091.13;;;18.29;50.31
68456;BME280;55437;55.046;38.838;2022-08-20T05:55:28;101096.50;;;18.06;50.35
68456;BME280;55437;55.046;38.838;2022-08-20T05:58:02;101093.16;;;18.02;50.82
68456;BME280;55437;55.046;38.838;2022-08-20T06:00:30;101097.41;;;18.05;50.23
68456;BME280;55437;55.046;38.838;2022-08-20T06:02:57;101087.91;;;18.04;50.00
68456;BME280;55437;55.046;38.838;2022-08-20T06:05:41;101084.66;;;18.19;50.04
68456;BME280;55437;55.046;38.838;2022-08-20T06:08:08;101083.53;;;18.24;49.80
68456;BME280;55437;55.046;38.838;2022-08-20T06:10:35;101084.13;;;18.31;49.77
68456;BME280;55437;55.046;38.838;2022-08-20T06:13:02;101083.91;;;18.35;49.37
68456;BME280;55437;55.046;38.838;2022-08-20T06:15:29;101082.72;;;18.43;49.12
68456;BME280;55437;55.046;38.838;2022-08-20T06:17:55;101078.09;;;18.49;49.25
68456;BME280;55437;55.046;38.838;2022-08-20T06:20:21;101081.59;;;18.48;49.06
68456;BME280;55437;55.046;38.838;2022-08-20T06:22:47;101073.72;;;18.50;48.75
68456;BME280;55437;55.046;38.838;2022-08-20T06:25:13;101071.28;;;18.47;48.58
68456;BME280;55437;55.046;38.838;2022-08-20T06:27:40;101065.50;;;18.40;48.78
68456;BME280;55437;55.046;38.838;2022-08-20T06:30:09;101069.59;;;18.46;48.64
68456;BME280;55437;55.046;38.838;2022-08-20T06:32:35;101066.00;;;18.48;49.06
68456;BME280;55437;55.046;38.838;2022-08-20T06:35:03;101066.00;;;18.48;48.76
68456;BME280;55437;55.046;38.838;2022-08-20T06:37:31;101067.69;;;18.49;49.00
68456;BME280;55437;55.046;38.838;2022-08-20T06:40:30;101058.19;;;18.48;48.69
68456;BME280;55437;55.046;38.838;2022-08-20T06:42:56;101074.00;;;18.44;48.87
68456;BME280;55437;55.046;38.838;2022-08-20T06:45:26;101068.22;;;18.37;48.78
68456;BME280;55437;55.046;38.838;2022-08-20T06:47:55;101063.09;;;18.35;48.81
68456;BME280;55437;55.046;38.838;2022-08-20T06:50:29;101064.28;;;18.28;48.94
68456;BME280;55437;55.046;38.838;2022-08-20T06:52:57;101071.06;;;18.32;48.87
68456;BME280;55437;55.046;38.838;2022-08-20T06:55:23;101066.53;;;18.36;48.87
68456;BME280;55437;55.046;38.838;2022-08-20T06:57:59;101069.06;;;18.38;48.75
68456;BME280;55437;55.046;38.838;2022-08-20T07:00:26;101068.09;;;18.40;48.76
68456;BME280;55437;55.046;38.838;2022-08-20T07:02:53;101081.03;;;18.42;48.54
68456;BME280;55437;55.046;38.838;2022-08-20T07:05:18;101083.56;;;18.43;48.66
68456;BME280;55437;55.046;38.838;2022-08-20T07:07:46;101093.00;;;18.46;48.31
68456;BME280;55437;55.046;38.838;2022-08-20T07:10:14;101095.31;;;18.52;48.31
68456;BME280;55437;55.046;38.838;2022-08-20T07:12:40;101099.06;;;18.46;48.16
68456;BME280;55437;55.046;38.838;2022-08-20T07:15:08;101107.22;;;18.57;47.84
68456;BME280;55437;55.046;38.838;2022-08-20T07:17:34;101100.13;;;18.61;48.06
68456;BME280;55437;55.046;38.838;2022-08-20T07:20:10;101099.94;;;18.65;47.96
68456;BME280;55437;55.046;38.838;2022-08-20T07:22:37;101105.91;;;18.67;47.83
68456;BME280;55437;55.046;38.838;2022-08-20T07:25:05;101103.81;;;18.76;47.84
68456;BME280;55437;55.046;38.838;2022-08-20T07:27:31;101097.56;;;18.80;47.36
68456;BME280;55437;55.046;38.838;2022-08-20T07:29:57;101101.69;;;18.84;47.19
68456;BME280;55437;55.046;38.838;2022-08-20T07:32:42;101096.91;;;18.93;47.11
68456;BME280;55437;55.046;38.838;2022-08-20T07:35:11;101102.59;;;19.01;46.69
68456;BME280;55437;55.046;38.838;2022-08-20T07:37:43;101099.94;;;19.03;46.55
68456;BME280;55437;55.046;38.838;2022-08-20T07:40:19;101098.03;;;19.06;46.22
68456;BME280;55437;55.046;38.838;2022-08-20T07:42:45;101107.94;;;19.17;46.17
68456;BME280;55437;55.046;38.838;2022-08-20T07:45:13;101110.09;;;19.26;45.79
68456;BME280;55437;55.046;38.838;2022-08-20T07:47:42;101101.97;;;19.32;45.70
68456;BME280;55437;55.046;38.838;2022-08-20T07:50:10;101100.78;;;19.39;45.65
68456;BME280;55437;55.046;38.838;2022-08-20T07:52:36;101105.84;;;19.42;45.42
68456;BME280;55437;55.046;38.838;2022-08-20T07:55:08;101099.81;;;19.42;45.63
68456;BME280;55437;55.046;38.838;2022-08-20T07:57:35;101098.97;;;19.41;45.44
68456;BME280;55437;55.046;38.838;2022-08-20T08:00:05;101103.00;;;19.47;45.64
68456;BME280;55437;55.046;38.838;2022-08-20T08:02:35;101093.13;;;19.36;45.66
68456;BME280;55437;55.046;38.838;2022-08-20T08:05:02;101098.47;;;19.33;45.56
68456;BME280;55437;55.046;38.838;2022-08-20T08:07:29;101099.75;;;19.25;45.43
68456;BME280;55437;55.046;38.838;2022-08-20T08:09:55;101094.63;;;19.23;45.91
68456;BME280;55437;55.046;38.838;2022-08-20T08:12:22;101102.22;;;19.28;45.64
68456;BME280;55437;55.046;38.838;2022-08-20T08:14:51;101102.56;;;19.20;45.43
68456;BME280;55437;55.046;38.838;2022-08-20T08:17:18;101105.47;;;19.14;45.62
68456;BME280;55437;55.046;38.838;2022-08-20T08:19:46;101110.88;;;19.10;45.55
68456;BME280;55437;55.046;38.838;2022-08-20T08:22:15;101105.84;;;19.06;45.67
68456;BME280;55437;55.046;38.838;2022-08-20T08:24:43;101098.94;;;19.05;45.98
68456;BME280;55437;55.046;38.838;2022-08-20T08:27:13;101109.44;;;19.04;46.14
68456;BME280;55437;55.046;38.838;2022-08-20T08:29:39;101110.16;;;19.08;46.36
68456;BME280;55437;55.046;38.838;2022-08-20T08:32:06;101110.34;;;19.03;46.21
68456;BME280;55437;55.046;38.838;2022-08-20T08:34:34;101101.03;;;18.97;46.51
68456;BME280;55437;55.046;38.838;2022-08-20T08:37:01;101108.66;;;19.02;46.57
68456;BME280;55437;55.046;38.838;2022-08-20T08:39:31;101110.47;;;19.00;46.71
68456;BME280;55437;55.046;38.838;2022-08-20T08:41:58;101108.13;;;18.95;46.55
68456;BME280;55437;55.046;38.838;2022-08-20T08:44:29;101093.31;;;18.96;46.59
68456;BME280;55437;55.046;38.838;2022-08-20T08:47:02;101107.88;;;19.00;46.74
68456;BME280;55437;55.046;38.838;2022-08-20T08:49:32;101119.06;;;19.02;46.41
68456;BME280;55437;55.046;38.838;2022-08-20T08:52:03;101111.63;;;18.94;46.26
68456;BME280;55437;55.046;38.838;2022-08-20T08:54:32;101114.00;;;18.99;46.64
68456;BME280;55437;55.046;38.838;2022-08-20T08:57:00;101120.97;;;18.98;46.58
68456;BME280;55437;55.046;38.838;2022-08-20T08:59:29;101113.72;;;19.05;46.37
68456;BME280;55437;55.046;38.838;2022-08-20T09:01:57;101109.44;;;19.04;45.85
68456;BME280;55437;55.046;38.838;2022-08-20T09:04:37;101108.53;;;19.05;46.20
68456;BME280;55437;55.046;38.838;2022-08-20T09:07:07;101116.03;;;19.11;46.04
68456;BME280;55437;55.046;38.838;2022-08-20T09:09:37;101103.91;;;19.10;46.10
68456;BME280;55437;55.046;38.838;2022-08-20T09:12:10;101108.22;;;19.11;45.90
68456;BME280;55437;55.046;38.838;2022-08-20T09:14:37;101099.44;;;19.14;46.15
68456;BME280;55437;55.046;38.838;2022-08-20T09:17:04;101091.94;;;19.25;46.09
68456;BME280;55437;55.046;38.838;2022-08-20T09:19:30;101091.56;;;19.32;45.72
68456;BME280;55437;55.046;38.838;2022-08-20T09:21:56;101076.44;;;19.40;45.63
68456;BME280;55437;55.046;38.838;2022-08-20T09:24:22;101073.41;;;19.50;45.47
68456;BME280;55437;55.046;38.838;2022-08-20T09:26:48;101081.06;;;19.70;45.03
68456;BME280;55437;55.046;38.838;2022-08-20T09:29:13;101072.03;;;19.77;44.88
68456;BME280;55437;55.046;38.838;2022-08-20T09:31:39;101076.63;;;19.89;44.33
68456;BME280;55437;55.046;38.838;2022-08-20T09:34:05;101077.44;;;20.07;44.10
68456;BME280;55437;55.046;38.838;2022-08-20T09:36:31;101070.50;;;20.23;43.69
68456;BME280;55437;55.046;38.838;2022-08-20T09:38:57;101067.22;;;20.37;43.25
68456;BME280;55437;55.046;38.838;2022-08-20T09:41:23;101082.56;;;20.59;43.04
68456;BME280;55437;55.046;38.838;2022-08-20T09:43:49;101071.72;;;20.82;42.27
68456;BME280;55437;55.046;38.838;2022-08-20T09:46:40;101065.56;;;20.99;41.08
68456;BME280;55437;55.046;38.838;2022-08-20T09:49:06;101061.59;;;20.92;40.64
68456;BME280;55437;55.046;38.838;2022-08-20T09:51:32;101077.19;;;20.93;40.77
68456;BME280;55437;55.046;38.838;2022-08-20T09:53:58;101067.31;;;21.14;40.50
68456;BME280;55437;55.046;38.838;2022-08-20T09:56:24;101080.84;;;21.22;40.25
68456;BME280;55437;55.046;38.838;2022-08-20T09:58:52;101076.25;;;21.26;39.89
68456;BME280;55437;55.046;38.838;2022-08-20T10:01:19;101075.00;;;21.33;39.08
68456;BME280;55437;55.046;38.838;2022-08-20T10:03:47;101076.53;;;21.37;38.82
68456;BME280;55437;55.046;38.838;2022-08-20T10:06:15;101078.53;;;21.32;38.47
68456;BME280;55437;55.046;38.838;2022-08-20T10:08:42;101063.84;;;21.45;38.24
68456;BME280;55437;55.046;38.838;2022-08-20T10:11:08;101069.75;;;21.63;38.17
68456;BME280;55437;55.046;38.838;2022-08-20T10:13:34;101062.13;;;21.60;38.31
68456;BME280;55437;55.046;38.838;2022-08-20T10:15:59;101061.44;;;21.56;38.28
68456;BME280;55437;55.046;38.838;2022-08-20T10:18:25;101055.22;;;21.59;38.03
68456;BME280;55437;55.046;38.838;2022-08-20T10:20:51;101038.59;;;21.60;38.20
68456;BME280;55437;55.046;38.838;2022-08-20T10:23:17;101031.28;;;21.50;38.16
68456;BME280;55437;55.046;38.838;2022-08-20T10:25:42;101041.72;;;21.36;38.07
68456;BME280;55437;55.046;38.838;2022-08-20T10:28:08;101030.19;;;21.25;38.32
68456;BME280;55437;55.046;38.838;2022-08-20T10:30:34;101043.28;;;21.39;38.23
68456;BME280;55437;55.046;38.838;2022-08-20T10:33:02;101020.03;;;21.34;37.90
68456;BME280;55437;55.046;38.838;2022-08-20T10:35:30;101023.03;;;21.42;37.86
68456;BME280;55437;55.046;38.838;2022-08-20T10:37:58;101025.53;;;21.60;37.80
68456;BME280;55437;55.046;38.838;2022-08-20T10:40:24;101020.13;;;21.77;37.40
68456;BME280;55437;55.046;38.838;2022-08-20T10:42:50;101022.56;;;21.80;37.22
68456;BME280;55437;55.046;38.838;2022-08-20T10:45:18;101028.94;;;21.90;37.14
68456;BME280;55437;55.046;38.838;2022-08-20T10:47:44;101034.66;;;21.97;36.85
68456;BME280;55437;55.046;38.838;2022-08-20T10:50:14;101028.13;;;22.04;37.04
68456;BME280;55437;55.046;38.838;2022-08-20T10:52:40;101027.75;;;22.24;36.56
68456;BME280;55437;55.046;38.838;2022-08-20T10:55:06;101021.22;;;22.17;36.53
68456;BME280;55437;55.046;38.838;2022-08-20T10:57:33;101027.09;;;22.20;36.37
68456;BME280;55437;55.046;38.838;2022-08-20T10:59:59;101032.13;;;22.23;36.63
68456;BME280;55437;55.046;38.838;2022-08-20T11:02:26;101039.25;;;22.21;36.37
68456;BME280;55437;55.046;38.838;2022-08-20T11:04:52;101036.72;;;22.20;36.55
68456;BME280;55437;55.046;38.838;2022-08-20T11:07:26;101034.13;;;22.20;36.07
68456;BME280;55437;55.046;38.838;2022-08-20T11:09:52;101027.66;;;22.25;36.24
68456;BME280;55437;55.046;38.838;2022-08-20T11:12:19;101034.75;;;22.23;35.73
68456;BME280;55437;55.046;38.838;2022-08-20T11:14:46;101017.56;;;22.19;35.99
68456;BME280;55437;55.046;38.838;2022-08-20T11:17:12;101033.06;;;22.22;36.00
68456;BME280;55437;55.046;38.838;2022-08-20T11:19:42;101030.66;;;22.19;35.71
68456;BME280;55437;55.046;38.838;2022-08-20T11:22:09;101015.91;;;22.18;36.00
68456;BME280;55437;55.046;38.838;2022-08-20T11:24:36;101034.38;;;22.15;36.27
68456;BME280;55437;55.046;38.838;2022-08-20T11:27:05;101044.84;;;22.15;35.72
68456;BME280;55437;55.046;38.838;2022-08-20T11:29:33;101014.88;;;22.07;35.89
68456;BME280;55437;55.046;38.838;2022-08-20T11:31:59;101003.25;;;22.11;35.84
68456;BME280;55437;55.046;38.838;2022-08-20T11:34:25;100998.97;;;22.10;35.87
68456;BME280;55437;55.046;38.838;2022-08-20T11:36:51;100997.09;;;22.12;35.85
68456;BME280;55437;55.046;38.838;2022-08-20T11:39:18;100993.56;;;22.13;36.06
68456;BME280;55437;55.046;38.838;2022-08-20T11:41:43;100989.16;;;22.27;36.03
68456;BME280;55437;55.046;38.838;2022-08-20T11:44:10;100996.16;;;22.27;35.93
68456;BME280;55437;55.046;38.838;2022-08-20T11:46:36;100981.50;;;22.24;36.22
68456;BME280;55437;55.046;38.838;2022-08-20T11:49:02;100984.00;;;22.26;36.39
68456;BME280;55437;55.046;38.838;2022-08-20T11:51:28;100975.41;;;22.24;36.50
68456;BME280;55437;55.046;38.838;2022-08-20T11:53:54;100970.75;;;22.29;36.60
68456;BME280;55437;55.046;38.838;2022-08-20T11:56:20;100975.88;;;22.31;36.96
68456;BME280;55437;55.046;38.838;2022-08-20T11:58:46;100963.09;;;22.26;37.13
68456;BME280;55437;55.046;38.838;2022-08-20T12:01:13;100966.16;;;22.33;37.33
68456;BME280;55437;55.046;38.838;2022-08-20T12:03:39;100961.13;;;22.30;37.65
68456;BME280;55437;55.046;38.838;2022-08-20T12:06:07;100957.47;;;22.32;37.96
68456;BME280;55437;55.046;38.838;2022-08-20T12:08:33;100952.25;;;22.32;37.94
68456;BME280;55437;55.046;38.838;2022-08-20T12:11:00;100942.63;;;22.33;37.95
68456;BME280;55437;55.046;38.838;2022-08-20T12:13:33;100936.78;;;22.42;37.87
68456;BME280;55437;55.046;38.838;2022-08-20T12:16:00;100937.31;;;22.47;37.88
68456;BME280;55437;55.046;38.838;2022-08-20T12:18:26;100928.16;;;22.54;37.76
68456;BME280;55437;55.046;38.838;2022-08-20T12:20:52;100933.53;;;22.65;37.79
68456;BME280;55437;55.046;38.838;2022-08-20T12:23:18;100931.25;;;22.73;37.47
68456;BME280;55437;55.046;38.838;2022-08-20T12:25:44;100922.72;;;22.84;36.55
68456;BME280;55437;55.046;38.838;2022-08-20T12:28:13;100930.38;;;22.87;35.06
68456;BME280;55437;55.046;38.838;2022-08-20T12:30:39;100920.03;;;22.98;34.20
68456;BME280;55437;55.046;38.838;2022-08-20T12:33:07;100923.41;;;23.00;33.75
68456;BME280;55437;55.046;38.838;2022-08-20T12:35:35;100913.56;;;23.04;33.82
68456;BME280;55437;55.046;38.838;2022-08-20T12:38:05;100905.47;;;23.07;33.71
68456;BME280;55437;55.046;38.838;2022-08-20T12:40:34;100923.53;;;23.11;33.36
68456;BME280;55437;55.046;38.838;2022-08-20T12:43:01;100908.03;;;23.21;33.69
68456;BME280;55437;55.046;38.838;2022-08-20T12:45:32;100911.72;;;23.18;33.59
68456;BME280;55437;55.046;38.838;2022-08-20T12:48:04;100910.63;;;23.21;33.34
68456;BME280;55437;55.046;38.838;2022-08-20T12:50:34;100895.66;;;23.23;33.44
68456;BME280;55437;55.046;38.838;2022-08-20T12:53:00;100901.63;;;23.25;33.30
68456;BME280;55437;55.046;38.838;2022-08-20T12:55:27;100910.53;;;23.35;33.54